sensor_id;sensor_type;location;lat;lon;timestamp;P1;durP1;ratioP1;P2;durP2;ratioP2
71941;SDS011;59997;53.300;-6.260;2023-07-13T00:00:46;11.13;;;3.05;;
71941;SDS011;59997;53.300;-6.260;2023-07-13T00:03:11;10.50;;;2.83;;
71941;SDS011;59997;53.300;-6.260;2023-07-13T00:05:38;10.80;;;3.05;;
71941;SDS011;59997;53.300;-6.260;2023-07-13T00:08:04;12.90;;;2.95;;
71941;SDS011;59997;53.300;-6.260;2023-07-13T00:10:30;11.90;;;3.00;;
71941;SDS011;59997;53.300;-6.260;2023-07-13T00:12:55;10.75;;;2.25;;
71941;SDS011;59997;53.300;-6.260;2023-07-13T00:15:22;13.40;;;2.80;;
71941;SDS011;59997;53.300;-6.260;2023-07-13T00:17:50;11.68;;;3.03;;
71941;SDS011;59997;53.300;-6.260;2023-07-13T00:20:20;9.40;;;2.27;;
71941;SDS011;59997;53.300;-6.260;2023-07-13T00:22:48;12.82;;;3.85;;
71941;SDS011;59997;53.300;-6.260;2023-07-13T00:25:15;13.82;;;3.22;;
71941;SDS011;59997;53.300;-6.260;2023-07-13T00:27:41;10.07;;;2.83;;
71941;SDS011;59997;53.300;-6.260;2023-07-13T00:30:08;8.73;;;2.60;;
71941;SDS011;59997;53.300;-6.260;2023-07-13T00:32:34;10.73;;;2.60;;
71941;SDS011;59997;53.300;-6.260;2023-07-13T00:35:00;10.60;;;2.60;;
71941;SDS011;59997;53.300;-6.260;2023-07-13T00:37:26;14.70;;;2.88;;
71941;SDS011;59997;53.300;-6.260;2023-07-13T00:39:51;14.47;;;2.73;;
71941;SDS011;59997;53.300;-6.260;2023-07-13T00:42:17;13.83;;;2.43;;
71941;SDS011;59997;53.300;-6.260;2023-07-13T00:45:00;13.83;;;2.67;;
71941;SDS011;59997;53.300;-6.260;2023-07-13T00:47:26;14.60;;;3.00;;
71941;SDS011;59997;53.300;-6.260;2023-07-13T00:49:52;8.77;;;2.60;;
71941;SDS011;59997;53.300;-6.260;2023-07-13T00:52:17;13.10;;;2.73;;
71941;SDS011;59997;53.300;-6.260;2023-07-13T00:54:43;11.67;;;3.00;;
71941;SDS011;59997;53.300;-6.260;2023-07-13T00:57:11;13.60;;;2.97;;
71941;SDS011;59997;53.300;-6.260;2023-07-13T00:59:40;15.52;;;2.90;;
71941;SDS011;59997;53.300;-6.260;2023-07-13T01:02:10;16.23;;;3.38;;
71941;SDS011;59997;53.300;-6.260;2023-07-13T01:04:36;11.80;;;2.65;;
71941;SDS011;59997;53.300;-6.260;2023-07-13T01:07:03;12.95;;;3.28;;
71941;SDS011;59997;53.300;-6.260;2023-07-13T01:09:30;11.13;;;2.83;;
71941;SDS011;59997;53.300;-6.260;2023-07-13T01:11:55;15.73;;;3.00;;
71941;SDS011;59997;53.300;-6.260;2023-07-13T01:14:21;12.00;;;2.87;;
71941;SDS011;59997;53.300;-6.260;2023-07-13T01:16:46;12.63;;;3.00;;
71941;SDS011;59997;53.300;-6.260;2023-07-13T01:22:01;9.70;;;2.67;;
71941;SDS011;59997;53.300;-6.260;2023-07-13T01:24:34;13.25;;;2.83;;
71941;SDS011;59997;53.300;-6.260;2023-07-13T01:27:01;10.13;;;2.75;;
71941;SDS011;59997;53.300;-6.260;2023-07-13T01:29:27;17.43;;;3.10;;
71941;SDS011;59997;53.300;-6.260;2023-07-13T01:31:53;14.52;;;2.83;;
71941;SDS011;59997;53.300;-6.260;2023-07-13T01:34:18;11.83;;;3.30;;
71941;SDS011;59997;53.300;-6.260;2023-07-13T01:36:43;15.10;;;2.87;;
71941;SDS011;59997;53.300;-6.260;2023-07-13T01:39:09;13.63;;;2.63;;
71941;SDS011;59997;53.300;-6.260;2023-07-13T01:41:34;11.70;;;2.88;;
71941;SDS011;59997;53.300;-6.260;2023-07-13T01:44:00;14.07;;;2.93;;
71941;SDS011;59997;53.300;-6.260;2023-07-13T01:46:25;10.60;;;2.40;;
71941;SDS011;59997;53.300;-6.260;2023-07-13T01:48:51;15.20;;;2.80;;
71941;SDS011;59997;53.300;-6.260;2023-07-13T01:51:17;7.80;;;2.50;;
71941;SDS011;59997;53.300;-6.260;2023-07-13T01:53:43;13.00;;;2.80;;
71941;SDS011;59997;53.300;-6.260;2023-07-13T01:56:08;12.80;;;2.80;;
71941;SDS011;59997;53.300;-6.260;2023-07-13T01:58:34;11.97;;;3.10;;
71941;SDS011;59997;53.300;-6.260;2023-07-13T02:00:59;8.23;;;2.50;;
71941;SDS011;59997;53.300;-6.260;2023-07-13T02:03:25;8.37;;;2.33;;
71941;SDS011;59997;53.300;-6.260;2023-07-13T02:05:50;10.47;;;2.77;;
71941;SDS011;59997;53.300;-6.260;2023-07-13T02:08:16;10.70;;;2.30;;
71941;SDS011;59997;53.300;-6.260;2023-07-13T02:10:41;14.53;;;2.67;;
71941;SDS011;59997;53.300;-6.260;2023-07-13T02:13:06;7.18;;;2.50;;
71941;SDS011;59997;53.300;-6.260;2023-07-13T02:15:32;9.67;;;2.10;;
71941;SDS011;59997;53.300;-6.260;2023-07-13T02:17:58;11.82;;;2.13;;
71941;SDS011;59997;53.300;-6.260;2023-07-13T02:20:24;13.80;;;2.53;;
71941;SDS011;59997;53.300;-6.260;2023-07-13T02:22:51;14.30;;;2.83;;
71941;SDS011;59997;53.300;-6.260;2023-07-13T02:25:17;10.40;;;2.50;;
71941;SDS011;59997;53.300;-6.260;2023-07-13T02:27:42;14.60;;;2.90;;
71941;SDS011;59997;53.300;-6.260;2023-07-13T02:30:08;11.60;;;3.10;;
71941;SDS011;59997;53.300;-6.260;2023-07-13T02:32:33;11.40;;;2.43;;
71941;SDS011;59997;53.300;-6.260;2023-07-13T02:35:00;13.27;;;2.88;;
71941;SDS011;59997;53.300;-6.260;2023-07-13T02:37:26;9.68;;;2.60;;
71941;SDS011;59997;53.300;-6.260;2023-07-13T02:39:51;10.47;;;2.23;;
71941;SDS011;59997;53.300;-6.260;2023-07-13T02:42:17;8.73;;;2.15;;
71941;SDS011;59997;53.300;-6.260;2023-07-13T02:44:42;9.10;;;1.80;;
71941;SDS011;59997;53.300;-6.260;2023-07-13T02:47:08;9.27;;;2.33;;
71941;SDS011;59997;53.300;-6.260;2023-07-13T02:49:33;12.77;;;2.30;;
71941;SDS011;59997;53.300;-6.260;2023-07-13T02:51:59;10.10;;;2.10;;
71941;SDS011;59997;53.300;-6.260;2023-07-13T02:54:24;10.17;;;2.07;;
71941;SDS011;59997;53.300;-6.260;2023-07-13T02:56:50;9.70;;;2.33;;
71941;SDS011;59997;53.300;-6.260;2023-07-13T02:59:15;11.90;;;2.80;;
71941;SDS011;59997;53.300;-6.260;2023-07-13T03:01:41;10.43;;;2.60;;
71941;SDS011;59997;53.300;-6.260;2023-07-13T03:04:06;9.23;;;2.30;;
71941;SDS011;59997;53.300;-6.260;2023-07-13T03:06:32;10.87;;;2.33;;
71941;SDS011;59997;53.300;-6.260;2023-07-13T03:08:58;12.98;;;2.42;;
71941;SDS011;59997;53.300;-6.260;2023-07-13T03:11:25;11.83;;;2.20;;
71941;SDS011;59997;53.300;-6.260;2023-07-13T03:13:51;12.02;;;2.50;;
71941;SDS011;59997;53.300;-6.260;2023-07-13T03:16:17;9.40;;;2.28;;
71941;SDS011;59997;53.300;-6.260;2023-07-13T03:18:43;10.50;;;2.37;;
71941;SDS011;59997;53.300;-6.260;2023-07-13T03:21:09;11.70;;;2.28;;
71941;SDS011;59997;53.300;-6.260;2023-07-13T03:23:35;10.98;;;2.47;;
71941;SDS011;59997;53.300;-6.260;2023-07-13T03:26:08;9.23;;;2.43;;
71941;SDS011;59997;53.300;-6.260;2023-07-13T03:28:39;8.93;;;2.30;;
71941;SDS011;59997;53.300;-6.260;2023-07-13T03:31:09;9.70;;;2.28;;
71941;SDS011;59997;53.300;-6.260;2023-07-13T03:33:39;10.25;;;2.40;;
71941;SDS011;59997;53.300;-6.260;2023-07-13T03:36:06;11.83;;;2.10;;
71941;SDS011;59997;53.300;-6.260;2023-07-13T03:38:33;10.60;;;2.55;;
71941;SDS011;59997;53.300;-6.260;2023-07-13T03:40:59;11.95;;;2.92;;
71941;SDS011;59997;53.300;-6.260;2023-07-13T03:43:24;12.90;;;2.10;;
71941;SDS011;59997;53.300;-6.260;2023-07-13T03:45:50;11.93;;;2.43;;
71941;SDS011;59997;53.300;-6.260;2023-07-13T03:48:16;11.38;;;2.40;;
71941;SDS011;59997;53.300;-6.260;2023-07-13T03:50:41;17.50;;;2.65;;
71941;SDS011;59997;53.300;-6.260;2023-07-13T03:53:07;13.43;;;2.50;;
71941;SDS011;59997;53.300;-6.260;2023-07-13T03:55:33;13.43;;;2.70;;
71941;SDS011;59997;53.300;-6.260;2023-07-13T03:58:22;10.85;;;2.63;;
71941;SDS011;59997;53.300;-6.260;2023-07-13T04:00:50;16.30;;;2.90;;
71941;SDS011;59997;53.300;-6.260;2023-07-13T04:03:16;10.98;;;2.25;;
71941;SDS011;59997;53.300;-6.260;2023-07-13T04:05:41;9.53;;;2.67;;
71941;SDS011;59997;53.300;-6.260;2023-07-13T04:08:07;9.02;;;2.53;;
71941;SDS011;59997;53.300;-6.260;2023-07-13T04:10:32;9.37;;;2.53;;
71941;SDS011;59997;53.300;-6.260;2023-07-13T04:12:58;14.10;;;3.13;;
71941;SDS011;59997;53.300;-6.260;2023-07-13T04:15:23;10.77;;;2.90;;
71941;SDS011;59997;53.300;-6.260;2023-07-13T04:17:49;12.13;;;3.00;;
71941;SDS011;59997;53.300;-6.260;2023-07-13T04:20:15;15.40;;;2.80;;
71941;SDS011;59997;53.300;-6.260;2023-07-13T04:22:40;13.95;;;2.83;;
71941;SDS011;59997;53.300;-6.260;2023-07-13T04:25:06;9.30;;;2.73;;
71941;SDS011;59997;53.300;-6.260;2023-07-13T04:27:31;11.93;;;2.67;;
71941;SDS011;59997;53.300;-6.260;2023-07-13T04:29:57;13.10;;;2.80;;
71941;SDS011;59997;53.300;-6.260;2023-07-13T04:32:22;10.77;;;2.80;;
71941;SDS011;59997;53.300;-6.260;2023-07-13T04:34:48;15.83;;;2.70;;
71941;SDS011;59997;53.300;-6.260;2023-07-13T04:37:18;11.55;;;2.65;;
71941;SDS011;59997;53.300;-6.260;2023-07-13T04:39:45;11.77;;;2.60;;
71941;SDS011;59997;53.300;-6.260;2023-07-13T04:42:10;14.77;;;2.90;;
71941;SDS011;59997;53.300;-6.260;2023-07-13T04:44:36;15.40;;;2.50;;
71941;SDS011;59997;53.300;-6.260;2023-07-13T04:47:01;10.57;;;2.75;;
71941;SDS011;59997;53.300;-6.260;2023-07-13T04:49:27;11.57;;;2.40;;
71941;SDS011;59997;53.300;-6.260;2023-07-13T04:51:52;11.40;;;2.30;;
71941;SDS011;59997;53.300;-6.260;2023-07-13T04:54:19;8.60;;;2.30;;
71941;SDS011;59997;53.300;-6.260;2023-07-13T04:56:45;16.70;;;2.87;;
71941;SDS011;59997;53.300;-6.260;2023-07-13T04:59:10;7.30;;;2.20;;
71941;SDS011;59997;53.300;-6.260;2023-07-13T05:01:35;9.27;;;2.30;;
71941;SDS011;59997;53.300;-6.260;2023-07-13T05:04:01;16.05;;;2.55;;
71941;SDS011;59997;53.300;-6.260;2023-07-13T05:06:26;8.63;;;2.10;;
71941;SDS011;59997;53.300;-6.260;2023-07-13T05:08:52;12.23;;;2.60;;
71941;SDS011;59997;53.300;-6.260;2023-07-13T05:11:18;11.90;;;2.50;;
71941;SDS011;59997;53.300;-6.260;2023-07-13T05:13:43;10.70;;;2.50;;
71941;SDS011;59997;53.300;-6.260;2023-07-13T05:16:09;9.77;;;1.98;;
71941;SDS011;59997;53.300;-6.260;2023-07-13T05:18:35;11.97;;;2.53;;
71941;SDS011;59997;53.300;-6.260;2023-07-13T05:21:05;12.40;;;2.50;;
71941;SDS011;59997;53.300;-6.260;2023-07-13T05:23:32;13.48;;;2.78;;
71941;SDS011;59997;53.300;-6.260;2023-07-13T05:25:59;12.60;;;2.40;;
71941;SDS011;59997;53.300;-6.260;2023-07-13T05:28:26;12.65;;;2.85;;
71941;SDS011;59997;53.300;-6.260;2023-07-13T05:30:52;12.25;;;2.63;;
71941;SDS011;59997;53.300;-6.260;2023-07-13T05:33:21;7.75;;;2.22;;
71941;SDS011;59997;53.300;-6.260;2023-07-13T05:35:47;12.03;;;2.80;;
71941;SDS011;59997;53.300;-6.260;2023-07-13T05:38:12;13.52;;;2.90;;
71941;SDS011;59997;53.300;-6.260;2023-07-13T05:40:38;14.63;;;2.50;;
71941;SDS011;59997;53.300;-6.260;2023-07-13T05:43:04;13.40;;;2.53;;
71941;SDS011;59997;53.300;-6.260;2023-07-13T05:45:29;9.23;;;1.73;;
71941;SDS011;59997;53.300;-6.260;2023-07-13T05:47:55;10.93;;;2.00;;
71941;SDS011;59997;53.300;-6.260;2023-07-13T05:50:20;8.20;;;2.13;;
71941;SDS011;59997;53.300;-6.260;2023-07-13T05:52:46;11.67;;;1.90;;
71941;SDS011;59997;53.300;-6.260;2023-07-13T05:55:12;10.13;;;1.92;;
71941;SDS011;59997;53.300;-6.260;2023-07-13T05:57:37;11.40;;;2.07;;
71941;SDS011;59997;53.300;-6.260;2023-07-13T06:00:03;7.30;;;1.70;;
71941;SDS011;59997;53.300;-6.260;2023-07-13T06:02:28;9.63;;;2.20;;
71941;SDS011;59997;53.300;-6.260;2023-07-13T06:04:54;10.90;;;1.93;;
71941;SDS011;59997;53.300;-6.260;2023-07-13T06:07:19;9.93;;;1.90;;
71941;SDS011;59997;53.300;-6.260;2023-07-13T06:09:46;10.82;;;1.83;;
71941;SDS011;59997;53.300;-6.260;2023-07-13T06:12:11;11.70;;;2.33;;
71941;SDS011;59997;53.300;-6.260;2023-07-13T06:14:37;7.57;;;1.47;;
71941;SDS011;59997;53.300;-6.260;2023-07-13T06:17:02;8.53;;;2.13;;
71941;SDS011;59997;53.300;-6.260;2023-07-13T06:19:28;10.30;;;1.90;;
71941;SDS011;59997;53.300;-6.260;2023-07-13T06:21:54;9.43;;;1.87;;
71941;SDS011;59997;53.300;-6.260;2023-07-13T06:24:20;8.10;;;1.88;;
71941;SDS011;59997;53.300;-6.260;2023-07-13T06:26:45;8.63;;;1.50;;
71941;SDS011;59997;53.300;-6.260;2023-07-13T06:29:10;12.20;;;3.07;;
71941;SDS011;59997;53.300;-6.260;2023-07-13T06:31:36;8.23;;;1.90;;
71941;SDS011;59997;53.300;-6.260;2023-07-13T06:34:01;11.70;;;2.33;;
71941;SDS011;59997;53.300;-6.260;2023-07-13T06:36:27;11.90;;;2.00;;
71941;SDS011;59997;53.300;-6.260;2023-07-13T06:38:53;9.25;;;1.92;;
71941;SDS011;59997;53.300;-6.260;2023-07-13T06:41:18;13.10;;;1.80;;
71941;SDS011;59997;53.300;-6.260;2023-07-13T06:43:44;7.15;;;1.73;;
71941;SDS011;59997;53.300;-6.260;2023-07-13T06:46:09;8.33;;;1.40;;
71941;SDS011;59997;53.300;-6.260;2023-07-13T06:48:35;9.17;;;1.70;;
71941;SDS011;59997;53.300;-6.260;2023-07-13T06:51:01;8.10;;;1.55;;
71941;SDS011;59997;53.300;-6.260;2023-07-13T06:53:27;7.07;;;2.23;;
71941;SDS011;59997;53.300;-6.260;2023-07-13T06:55:53;6.13;;;1.55;;
71941;SDS011;59997;53.300;-6.260;2023-07-13T06:58:18;10.20;;;1.63;;
71941;SDS011;59997;53.300;-6.260;2023-07-13T07:00:44;7.40;;;1.50;;
71941;SDS011;59997;53.300;-6.260;2023-07-13T07:03:10;10.17;;;1.50;;
71941;SDS011;59997;53.300;-6.260;2023-07-13T07:05:35;8.88;;;1.30;;
71941;SDS011;59997;53.300;-6.260;2023-07-13T07:08:01;6.80;;;1.43;;
71941;SDS011;59997;53.300;-6.260;2023-07-13T07:10:30;6.87;;;1.20;;
71941;SDS011;59997;53.300;-6.260;2023-07-13T07:12:57;9.35;;;1.30;;
71941;SDS011;59997;53.300;-6.260;2023-07-13T07:15:22;7.55;;;1.35;;
71941;SDS011;59997;53.300;-6.260;2023-07-13T07:17:48;12.33;;;1.80;;
71941;SDS011;59997;53.300;-6.260;2023-07-13T07:20:14;8.82;;;2.17;;
71941;SDS011;59997;53.300;-6.260;2023-07-13T07:22:39;8.30;;;1.40;;
71941;SDS011;59997;53.300;-6.260;2023-07-13T07:25:05;9.23;;;1.40;;
71941;SDS011;59997;53.300;-6.260;2023-07-13T07:27:30;6.97;;;1.50;;
71941;SDS011;59997;53.300;-6.260;2023-07-13T07:29:56;6.93;;;1.50;;
71941;SDS011;59997;53.300;-6.260;2023-07-13T07:32:22;8.35;;;1.73;;
71941;SDS011;59997;53.300;-6.260;2023-07-13T07:34:48;8.43;;;1.50;;
71941;SDS011;59997;53.300;-6.260;2023-07-13T07:37:14;6.37;;;1.53;;
71941;SDS011;59997;53.300;-6.260;2023-07-13T07:39:39;8.03;;;1.57;;
71941;SDS011;59997;53.300;-6.260;2023-07-13T07:42:05;7.47;;;1.38;;
71941;SDS011;59997;53.300;-6.260;2023-07-13T07:44:32;11.82;;;1.63;;
71941;SDS011;59997;53.300;-6.260;2023-07-13T07:46:57;5.73;;;1.33;;
71941;SDS011;59997;53.300;-6.260;2023-07-13T07:49:23;6.63;;;1.35;;
71941;SDS011;59997;53.300;-6.260;2023-07-13T07:51:49;7.50;;;1.70;;
71941;SDS011;59997;53.300;-6.260;2023-07-13T07:54:14;8.27;;;1.65;;
71941;SDS011;59997;53.300;-6.260;2023-07-13T07:56:40;5.27;;;1.30;;
71941;SDS011;59997;53.300;-6.260;2023-07-13T07:59:06;6.82;;;1.10;;
71941;SDS011;59997;53.300;-6.260;2023-07-13T08:01:31;6.43;;;1.30;;
71941;SDS011;59997;53.300;-6.260;2023-07-13T08:03:57;5.33;;;1.20;;
71941;SDS011;59997;53.300;-6.260;2023-07-13T08:06:22;6.28;;;1.80;;
71941;SDS011;59997;53.300;-6.260;2023-07-13T08:08:48;6.57;;;1.30;;
71941;SDS011;59997;53.300;-6.260;2023-07-13T08:11:14;7.10;;;1.52;;
71941;SDS011;59997;53.300;-6.260;2023-07-13T08:13:39;7.27;;;1.40;;
71941;SDS011;59997;53.300;-6.260;2023-07-13T08:16:05;6.60;;;1.60;;
71941;SDS011;59997;53.300;-6.260;2023-07-13T08:18:31;4.97;;;1.50;;
71941;SDS011;59997;53.300;-6.260;2023-07-13T08:20:56;5.35;;;1.30;;
71941;SDS011;59997;53.300;-6.260;2023-07-13T08:23:23;5.18;;;1.15;;
71941;SDS011;59997;53.300;-6.260;2023-07-13T08:25:53;6.00;;;1.60;;
71941;SDS011;59997;53.300;-6.260;2023-07-13T08:28:22;6.43;;;1.90;;
71941;SDS011;59997;53.300;-6.260;2023-07-13T08:30:48;8.10;;;1.80;;
71941;SDS011;59997;53.300;-6.260;2023-07-13T08:33:15;5.30;;;1.38;;
71941;SDS011;59997;53.300;-6.260;2023-07-13T08:35:47;5.50;;;1.42;;
71941;SDS011;59997;53.300;-6.260;2023-07-13T08:38:13;5.00;;;1.40;;
71941;SDS011;59997;53.300;-6.260;2023-07-13T08:40:39;6.13;;;1.40;;
71941;SDS011;59997;53.300;-6.260;2023-07-13T08:43:06;6.25;;;1.30;;
71941;SDS011;59997;53.300;-6.260;2023-07-13T08:45:51;5.07;;;1.40;;
71941;SDS011;59997;53.300;-6.260;2023-07-13T08:48:28;6.07;;;1.50;;
71941;SDS011;59997;53.300;-6.260;2023-07-13T08:51:03;5.10;;;1.30;;
71941;SDS011;59997;53.300;-6.260;2023-07-13T08:53:40;6.47;;;1.38;;
71941;SDS011;59997;53.300;-6.260;2023-07-13T08:56:19;5.65;;;1.13;;
71941;SDS011;59997;53.300;-6.260;2023-07-13T08:58:48;6.38;;;1.20;;
71941;SDS011;59997;53.300;-6.260;2023-07-13T09:04:19;7.30;;;1.60;;
71941;SDS011;59997;53.300;-6.260;2023-07-13T09:11:56;4.80;;;1.60;;
71941;SDS011;59997;53.300;-6.260;2023-07-13T09:17:25;4.83;;;1.87;;
71941;SDS011;59997;53.300;-6.260;2023-07-13T09:19:58;4.95;;;1.45;;
71941;SDS011;59997;53.300;-6.260;2023-07-13T09:22:29;4.77;;;2.00;;
71941;SDS011;59997;53.300;-6.260;2023-07-13T09:25:04;7.18;;;1.65;;
71941;SDS011;59997;53.300;-6.260;2023-07-13T09:27:44;4.53;;;1.20;;
71941;SDS011;59997;53.300;-6.260;2023-07-13T09:30:20;5.32;;;2.00;;
71941;SDS011;59997;53.300;-6.260;2023-07-13T09:32:51;5.13;;;1.33;;
71941;SDS011;59997;53.300;-6.260;2023-07-13T09:35:23;5.23;;;1.20;;
71941;SDS011;59997;53.300;-6.260;2023-07-13T09:40:43;5.45;;;1.30;;
71941;SDS011;59997;53.300;-6.260;2023-07-13T09:43:19;6.15;;;1.60;;
71941;SDS011;59997;53.300;-6.260;2023-07-13T09:45:46;6.65;;;1.83;;
71941;SDS011;59997;53.300;-6.260;2023-07-13T09:48:14;4.97;;;1.30;;
71941;SDS011;59997;53.300;-6.260;2023-07-13T09:50:41;5.70;;;1.52;;
71941;SDS011;59997;53.300;-6.260;2023-07-13T09:53:26;5.35;;;1.40;;
71941;SDS011;59997;53.300;-6.260;2023-07-13T09:55:56;7.65;;;1.40;;
71941;SDS011;59997;53.300;-6.260;2023-07-13T09:58:22;5.60;;;1.50;;
71941;SDS011;59997;53.300;-6.260;2023-07-13T10:00:54;6.97;;;1.90;;
71941;SDS011;59997;53.300;-6.260;2023-07-13T10:03:21;5.88;;;1.90;;
71941;SDS011;59997;53.300;-6.260;2023-07-13T10:05:49;5.07;;;1.93;;
71941;SDS011;59997;53.300;-6.260;2023-07-13T10:08:23;5.60;;;1.95;;
71941;SDS011;59997;53.300;-6.260;2023-07-13T10:11:08;6.25;;;1.60;;
71941;SDS011;59997;53.300;-6.260;2023-07-13T10:13:55;5.18;;;1.40;;
71941;SDS011;59997;53.300;-6.260;2023-07-13T10:16:26;5.35;;;1.48;;
71941;SDS011;59997;53.300;-6.260;2023-07-13T10:18:58;4.87;;;1.40;;
71941;SDS011;59997;53.300;-6.260;2023-07-13T10:21:28;8.25;;;4.63;;
71941;SDS011;59997;53.300;-6.260;2023-07-13T10:24:13;6.88;;;2.00;;
71941;SDS011;59997;53.300;-6.260;2023-07-13T10:26:56;5.30;;;1.77;;
71941;SDS011;59997;53.300;-6.260;2023-07-13T10:29:29;5.78;;;2.13;;
71941;SDS011;59997;53.300;-6.260;2023-07-13T10:32:01;6.43;;;2.10;;
71941;SDS011;59997;53.300;-6.260;2023-07-13T10:34:27;5.93;;;2.63;;
71941;SDS011;59997;53.300;-6.260;2023-07-13T10:36:53;5.35;;;2.22;;
71941;SDS011;59997;53.300;-6.260;2023-07-13T10:39:23;6.20;;;2.70;;
71941;SDS011;59997;53.300;-6.260;2023-07-13T10:41:59;5.67;;;2.10;;
71941;SDS011;59997;53.300;-6.260;2023-07-13T10:44:32;6.00;;;2.00;;
71941;SDS011;59997;53.300;-6.260;2023-07-13T10:46:59;6.30;;;2.60;;
71941;SDS011;59997;53.300;-6.260;2023-07-13T10:49:28;6.28;;;1.50;;
71941;SDS011;59997;53.300;-6.260;2023-07-13T10:51:56;5.32;;;2.25;;
71941;SDS011;59997;53.300;-6.260;2023-07-13T10:57:06;5.72;;;2.00;;
71941;SDS011;59997;53.300;-6.260;2023-07-13T10:59:47;5.13;;;1.50;;
71941;SDS011;59997;53.300;-6.260;2023-07-13T11:02:33;7.18;;;1.90;;
71941;SDS011;59997;53.300;-6.260;2023-07-13T11:04:58;7.47;;;1.70;;
71941;SDS011;59997;53.300;-6.260;2023-07-13T11:08:03;5.63;;;1.70;;
71941;SDS011;59997;53.300;-6.260;2023-07-13T11:11:00;5.53;;;2.08;;
71941;SDS011;59997;53.300;-6.260;2023-07-13T11:18:48;5.60;;;2.40;;
71941;SDS011;59997;53.300;-6.260;2023-07-13T11:21:18;8.65;;;2.30;;
71941;SDS011;59997;53.300;-6.260;2023-07-13T11:23:45;4.80;;;1.60;;
71941;SDS011;59997;53.300;-6.260;2023-07-13T11:32:01;6.25;;;1.70;;
71941;SDS011;59997;53.300;-6.260;2023-07-13T11:34:45;7.30;;;1.80;;
71941;SDS011;59997;53.300;-6.260;2023-07-13T11:37:12;6.30;;;1.33;;
71941;SDS011;59997;53.300;-6.260;2023-07-13T11:39:41;5.85;;;1.70;;
71941;SDS011;59997;53.300;-6.260;2023-07-13T11:42:10;5.30;;;1.73;;
71941;SDS011;59997;53.300;-6.260;2023-07-13T11:44:47;5.55;;;1.40;;
71941;SDS011;59997;53.300;-6.260;2023-07-13T11:47:16;5.55;;;1.45;;
71941;SDS011;59997;53.300;-6.260;2023-07-13T11:49:48;6.00;;;1.37;;
71941;SDS011;59997;53.300;-6.260;2023-07-13T11:55:14;5.97;;;1.40;;
71941;SDS011;59997;53.300;-6.260;2023-07-13T11:57:45;6.15;;;1.50;;
71941;SDS011;59997;53.300;-6.260;2023-07-13T12:00:15;5.72;;;2.00;;
71941;SDS011;59997;53.300;-6.260;2023-07-13T12:02:45;5.13;;;1.23;;
71941;SDS011;59997;53.300;-6.260;2023-07-13T12:05:15;6.30;;;1.60;;
71941;SDS011;59997;53.300;-6.260;2023-07-13T12:07:46;6.43;;;1.70;;
71941;SDS011;59997;53.300;-6.260;2023-07-13T12:10:17;5.32;;;1.60;;
71941;SDS011;59997;53.300;-6.260;2023-07-13T12:12:51;6.67;;;1.70;;
71941;SDS011;59997;53.300;-6.260;2023-07-13T12:15:46;6.38;;;1.55;;
71941;SDS011;59997;53.300;-6.260;2023-07-13T12:18:15;5.88;;;1.83;;
71941;SDS011;59997;53.300;-6.260;2023-07-13T12:20:45;5.90;;;1.67;;
71941;SDS011;59997;53.300;-6.260;2023-07-13T12:25:55;6.17;;;1.73;;
71941;SDS011;59997;53.300;-6.260;2023-07-13T12:28:30;5.35;;;1.65;;
71941;SDS011;59997;53.300;-6.260;2023-07-13T12:31:05;6.75;;;1.90;;
71941;SDS011;59997;53.300;-6.260;2023-07-13T12:33:48;5.63;;;2.00;;
71941;SDS011;59997;53.300;-6.260;2023-07-13T12:36:20;6.10;;;1.85;;
71941;SDS011;59997;53.300;-6.260;2023-07-13T12:38:46;5.47;;;1.70;;
71941;SDS011;59997;53.300;-6.260;2023-07-13T12:41:12;8.15;;;1.80;;
71941;SDS011;59997;53.300;-6.260;2023-07-13T12:43:37;7.37;;;2.10;;
71941;SDS011;59997;53.300;-6.260;2023-07-13T12:46:24;5.43;;;1.60;;
71941;SDS011;59997;53.300;-6.260;2023-07-13T12:48:54;6.27;;;1.93;;
71941;SDS011;59997;53.300;-6.260;2023-07-13T12:51:26;8.10;;;1.80;;
71941;SDS011;59997;53.300;-6.260;2023-07-13T12:53:57;6.15;;;1.70;;
71941;SDS011;59997;53.300;-6.260;2023-07-13T12:56:41;5.40;;;1.63;;
71941;SDS011;59997;53.300;-6.260;2023-07-13T12:59:08;7.47;;;1.93;;
71941;SDS011;59997;53.300;-6.260;2023-07-13T13:01:43;5.97;;;2.08;;
71941;SDS011;59997;53.300;-6.260;2023-07-13T13:04:08;5.00;;;1.80;;
71941;SDS011;59997;53.300;-6.260;2023-07-13T13:06:36;5.63;;;1.77;;
71941;SDS011;59997;53.300;-6.260;2023-07-13T13:09:02;7.07;;;1.67;;
71941;SDS011;59997;53.300;-6.260;2023-07-13T13:11:29;6.75;;;1.52;;
71941;SDS011;59997;53.300;-6.260;2023-07-13T13:13:56;7.78;;;1.63;;
71941;SDS011;59997;53.300;-6.260;2023-07-13T13:16:23;5.80;;;1.73;;
71941;SDS011;59997;53.300;-6.260;2023-07-13T13:18:57;5.63;;;1.65;;
71941;SDS011;59997;53.300;-6.260;2023-07-13T13:21:25;4.93;;;1.70;;
71941;SDS011;59997;53.300;-6.260;2023-07-13T13:23:51;6.53;;;1.70;;
71941;SDS011;59997;53.300;-6.260;2023-07-13T13:26:18;5.33;;;1.80;;
71941;SDS011;59997;53.300;-6.260;2023-07-13T13:28:44;5.07;;;1.85;;
71941;SDS011;59997;53.300;-6.260;2023-07-13T13:31:12;6.63;;;1.88;;
71941;SDS011;59997;53.300;-6.260;2023-07-13T13:33:40;6.75;;;2.20;;
71941;SDS011;59997;53.300;-6.260;2023-07-13T13:36:21;5.75;;;2.20;;
71941;SDS011;59997;53.300;-6.260;2023-07-13T13:38:48;5.67;;;2.00;;
71941;SDS011;59997;53.300;-6.260;2023-07-13T13:41:15;6.50;;;1.70;;
71941;SDS011;59997;53.300;-6.260;2023-07-13T13:43:41;5.50;;;1.83;;
71941;SDS011;59997;53.300;-6.260;2023-07-13T13:46:41;6.90;;;1.70;;
71941;SDS011;59997;53.300;-6.260;2023-07-13T13:48:59;6.45;;;2.13;;
71941;SDS011;59997;53.300;-6.260;2023-07-13T13:51:25;5.90;;;2.00;;
71941;SDS011;59997;53.300;-6.260;2023-07-13T13:53:51;7.93;;;2.15;;
71941;SDS011;59997;53.300;-6.260;2023-07-13T13:56:18;5.90;;;1.87;;
71941;SDS011;59997;53.300;-6.260;2023-07-13T13:58:45;6.63;;;1.70;;
71941;SDS011;59997;53.300;-6.260;2023-07-13T14:01:16;5.68;;;1.70;;
71941;SDS011;59997;53.300;-6.260;2023-07-13T14:03:44;6.45;;;1.85;;
71941;SDS011;59997;53.300;-6.260;2023-07-13T14:06:13;6.55;;;1.73;;
71941;SDS011;59997;53.300;-6.260;2023-07-13T14:08:40;6.80;;;1.80;;
71941;SDS011;59997;53.300;-6.260;2023-07-13T14:11:07;5.55;;;2.00;;
71941;SDS011;59997;53.300;-6.260;2023-07-13T14:13:38;5.97;;;2.42;;
71941;SDS011;59997;53.300;-6.260;2023-07-13T14:16:12;5.13;;;1.63;;
71941;SDS011;59997;53.300;-6.260;2023-07-13T14:18:43;5.78;;;2.13;;
71941;SDS011;59997;53.300;-6.260;2023-07-13T14:21:20;5.00;;;1.50;;
71941;SDS011;59997;53.300;-6.260;2023-07-13T14:23:47;5.65;;;1.60;;
71941;SDS011;59997;53.300;-6.260;2023-07-13T14:26:14;5.32;;;1.70;;
71941;SDS011;59997;53.300;-6.260;2023-07-13T14:28:43;6.05;;;1.70;;
71941;SDS011;59997;53.300;-6.260;2023-07-13T14:31:12;5.10;;;1.70;;
71941;SDS011;59997;53.300;-6.260;2023-07-13T14:33:39;5.40;;;1.30;;
71941;SDS011;59997;53.300;-6.260;2023-07-13T14:36:27;5.28;;;1.30;;
71941;SDS011;59997;53.300;-6.260;2023-07-13T14:38:55;5.45;;;1.50;;
71941;SDS011;59997;53.300;-6.260;2023-07-13T14:41:22;7.07;;;1.40;;
71941;SDS011;59997;53.300;-6.260;2023-07-13T14:43:48;4.43;;;1.08;;
71941;SDS011;59997;53.300;-6.260;2023-07-13T14:46:32;4.90;;;1.40;;
71941;SDS011;59997;53.300;-6.260;2023-07-13T14:49:01;5.18;;;1.10;;
71941;SDS011;59997;53.300;-6.260;2023-07-13T14:51:29;4.75;;;1.05;;
71941;SDS011;59997;53.300;-6.260;2023-07-13T14:53:56;7.15;;;1.98;;
71941;SDS011;59997;53.300;-6.260;2023-07-13T14:56:21;14.20;;;4.17;;
71941;SDS011;59997;53.300;-6.260;2023-07-13T14:58:47;10.35;;;1.88;;
71941;SDS011;59997;53.300;-6.260;2023-07-13T15:01:13;5.03;;;2.07;;
71941;SDS011;59997;53.300;-6.260;2023-07-13T15:03:44;5.65;;;1.52;;
71941;SDS011;59997;53.300;-6.260;2023-07-13T15:06:12;10.23;;;1.70;;
71941;SDS011;59997;53.300;-6.260;2023-07-13T15:08:38;5.27;;;1.33;;
71941;SDS011;59997;53.300;-6.260;2023-07-13T15:11:06;6.38;;;1.30;;
71941;SDS011;59997;53.300;-6.260;2023-07-13T15:13:36;5.88;;;1.42;;